Time;durP1;ratioP1;P1;durP2;ratioP2;P2;SDS_P1;SDS_P2;PMS_P1;PMS_P2;Temp;Humidity;BMP_temperature;BMP_pressure;BME280_temperature;BME280_humidity;BME280_pressure;Samples;Min_cycle;Max_cycle;Signal;HPM_P1;HPM_P2
2023/07/27 00:00:10;;;;;;;9.75;7.00;;;13.80;99.90;;;;;;4905757;29;20047;-82
2023/07/27 00:02:36;;;;;;;8.95;7.15;;;13.80;99.90;;;;;;4917255;29;20127;-82
2023/07/27 00:05:03;;;;;;;9.25;6.63;;;13.80;99.90;;;;;;4905751;29;20072;-82
2023/07/27 00:07:29;;;;;;;9.45;6.82;;;13.80;99.90;;;;;;4894472;29;20111;-82
2023/07/27 00:09:54;;;;;;;7.53;6.70;;;13.80;99.90;;;;;;4912801;29;20071;-82
2023/07/27 00:12:21;;;;;;;10.68;7.00;;;13.80;99.90;;;;;;4899902;29;20079;-82
2023/07/27 00:14:48;;;;;;;9.30;7.10;;;13.80;99.90;;;;;;4887800;29;20040;-82
2023/07/27 00:17:14;;;;;;;9.05;7.45;;;13.80;99.90;;;;;;4888716;29;20075;-82
2023/07/27 00:19:39;;;;;;;11.60;7.22;;;13.80;99.90;;;;;;4887629;29;20036;-82
2023/07/27 00:22:06;;;;;;;8.75;6.68;;;13.80;99.90;;;;;;4888247;29;20050;-82
2023/07/27 00:24:32;;;;;;;11.75;7.07;;;13.90;99.90;;;;;;4888478;29;20189;-82
2023/07/27 00:26:57;;;;;;;9.85;7.03;;;13.80;99.90;;;;;;4904548;29;20506;-82
2023/07/27 00:29:23;;;;;;;9.73;6.68;;;13.90;99.90;;;;;;4888501;29;20407;-82
2023/07/27 00:31:50;;;;;;;11.38;6.95;;;13.90;99.90;;;;;;4898888;29;20076;-82
2023/07/27 00:34:16;;;;;;;9.45;7.20;;;13.90;99.90;;;;;;4903677;29;20487;-82
2023/07/27 00:36:42;;;;;;;8.73;6.15;;;13.90;99.90;;;;;;4903652;29;20047;-82
2023/07/27 00:39:07;;;;;;;9.13;7.13;;;13.90;99.90;;;;;;4903364;29;20036;-82
2023/07/27 00:41:33;;;;;;;11.20;7.03;;;13.90;99.90;;;;;;4910853;29;20051;-82
2023/07/27 00:43:58;;;;;;;9.57;6.63;;;14.00;99.90;;;;;;4899415;29;20111;-82
2023/07/27 00:46:24;;;;;;;8.38;6.47;;;14.00;99.90;;;;;;4903840;29;20103;-82
2023/07/27 00:48:50;;;;;;;8.38;6.32;;;14.00;99.90;;;;;;4901186;29;20787;-82
2023/07/27 00:51:16;;;;;;;7.80;6.82;;;14.00;99.90;;;;;;4885750;29;20111;-82
2023/07/27 00:53:42;;;;;;;9.15;7.25;;;14.00;99.90;;;;;;4902269;29;20067;-82
2023/07/27 00:56:08;;;;;;;7.65;6.20;;;14.00;99.90;;;;;;4896901;29;20039;-82
2023/07/27 00:58:34;;;;;;;10.40;7.40;;;14.00;99.90;;;;;;4913262;29;20051;-82
2023/07/27 01:01:03;;;;;;;9.75;6.95;;;14.00;99.90;;;;;;4916560;29;20499;-82
2023/07/27 01:03:28;;;;;;;8.77;6.75;;;14.00;99.90;;;;;;4887923;29;20491;-82
2023/07/27 01:05:54;;;;;;;8.63;6.50;;;14.00;99.90;;;;;;4885455;29;20046;-81
2023/07/27 01:08:20;;;;;;;8.55;6.43;;;14.00;99.90;;;;;;4915181;29;20067;-81
2023/07/27 01:10:57;;;;;;;9.40;6.45;;;14.00;99.90;;;;;;4903188;29;20411;-82
2023/07/27 01:13:25;;;;;;;7.68;6.88;;;13.90;99.90;;;;;;4904101;29;20046;-82
2023/07/27 01:15:59;;;;;;;8.05;6.53;;;13.90;99.90;;;;;;4887870;29;20082;-82
2023/07/27 01:18:39;;;;;;;9.05;6.43;;;13.90;99.90;;;;;;4915461;29;20039;-82
2023/07/27 01:21:31;;;;;;;8.85;6.85;;;13.90;99.90;;;;;;4897079;29;20059;-82
2023/07/27 01:24:34;;;;;;;9.55;6.50;;;13.90;99.90;;;;;;4881359;29;20413;-82
2023/07/27 01:27:30;;;;;;;9.10;6.20;;;13.80;99.90;;;;;;4888714;29;20541;-82
2023/07/27 01:30:05;;;;;;;9.13;6.57;;;13.80;99.90;;;;;;4900934;29;20056;-82
2023/07/27 01:32:34;;;;;;;9.25;6.68;;;13.70;99.90;;;;;;4902668;29;20040;-82
2023/07/27 01:35:02;;;;;;;7.88;6.32;;;13.60;99.90;;;;;;4884493;29;20119;-82
2023/07/27 01:37:30;;;;;;;8.50;6.13;;;13.70;99.90;;;;;;4905561;29;20048;-82
2023/07/27 01:39:59;;;;;;;8.30;6.30;;;13.60;99.90;;;;;;4886111;29;20042;-82
2023/07/27 01:42:28;;;;;;;6.80;6.10;;;13.60;99.90;;;;;;4908468;29;20040;-82
2023/07/27 01:44:55;;;;;;;7.70;6.15;;;13.60;99.90;;;;;;4902588;29;20062;-82
2023/07/27 01:47:23;;;;;;;10.15;6.13;;;13.60;99.90;;;;;;4887703;29;20055;-82
2023/07/27 01:49:49;;;;;;;5.82;5.20;;;13.60;99.90;;;;;;4901990;29;20166;-82
2023/07/27 01:52:16;;;;;;;7.07;4.90;;;13.60;99.90;;;;;;4901661;29;20044;-82
2023/07/27 01:54:43;;;;;;;7.38;5.70;;;13.60;99.90;;;;;;4901346;29;20071;-82
2023/07/27 01:57:09;;;;;;;8.52;5.72;;;13.60;99.90;;;;;;4882998;29;20040;-82
2023/07/27 01:59:37;;;;;;;9.43;6.43;;;13.50;99.90;;;;;;4904712;29;20091;-82
2023/07/27 02:02:03;;;;;;;9.10;6.07;;;13.60;99.90;;;;;;4901054;29;20047;-82
2023/07/27 02:04:30;;;;;;;8.38;5.75;;;13.50;99.90;;;;;;4913345;29;20072;-82
2023/07/27 02:06:55;;;;;;;9.25;5.80;;;13.50;99.90;;;;;;4901941;29;20092;-82
2023/07/27 02:09:21;;;;;;;7.72;5.50;;;13.50;99.90;;;;;;4899545;29;20037;-82
2023/07/27 02:11:54;;;;;;;9.85;6.00;;;13.50;99.90;;;;;;4884484;29;20040;-82
2023/07/27 02:14:42;;;;;;;9.90;6.32;;;13.50;99.90;;;;;;4885738;29;20084;-82
2023/07/27 02:17:16;;;;;;;6.93;5.20;;;13.50;99.90;;;;;;4880500;29;20126;-82
2023/07/27 02:19:43;;;;;;;6.28;5.38;;;13.50;99.90;;;;;;4885438;29;20044;-82
2023/07/27 02:22:10;;;;;;;8.02;5.53;;;13.50;99.90;;;;;;4900636;29;20031;-82
2023/07/27 02:24:37;;;;;;;8.73;5.97;;;13.50;99.90;;;;;;4884877;29;20044;-82
2023/07/27 02:27:04;;;;;;;8.77;5.75;;;13.50;99.90;;;;;;4885411;29;20316;-82
2023/07/27 02:29:29;;;;;;;9.30;5.78;;;13.50;99.90;;;;;;4900941;29;20052;-82
2023/07/27 02:31:55;;;;;;;8.40;5.85;;;13.50;99.90;;;;;;4884661;29;20043;-82
2023/07/27 02:34:20;;;;;;;9.77;6.70;;;13.60;99.90;;;;;;4902013;29;20675;-82
2023/07/27 02:36:46;;;;;;;9.30;7.00;;;13.60;99.90;;;;;;4885308;29;20064;-82
2023/07/27 02:39:12;;;;;;;10.48;6.35;;;13.70;99.90;;;;;;4900036;29;20411;-82
2023/07/27 02:41:37;;;;;;;9.38;6.15;;;13.70;99.90;;;;;;4899187;29;20048;-82
2023/07/27 02:44:03;;;;;;;9.68;6.35;;;13.70;99.90;;;;;;4900407;29;20099;-82
2023/07/27 02:46:29;;;;;;;6.18;5.53;;;13.80;99.90;;;;;;4881075;29;20135;-82
2023/07/27 02:48:55;;;;;;;9.25;5.90;;;13.70;99.90;;;;;;4908337;29;20044;-82
2023/07/27 02:51:21;;;;;;;8.05;6.80;;;13.80;99.90;;;;;;4902941;29;20088;-82
2023/07/27 02:53:47;;;;;;;9.52;7.10;;;13.80;99.90;;;;;;4900010;29;20036;-82
2023/07/27 02:56:12;;;;;;;8.63;7.15;;;13.90;99.90;;;;;;4900167;29;20514;-82
2023/07/27 02:58:38;;;;;;;11.70;7.65;;;13.90;99.90;;;;;;4899809;29;20047;-82
2023/07/27 03:01:03;;;;;;;11.55;7.38;;;14.00;99.90;;;;;;4891704;29;20028;-82
2023/07/27 03:03:29;;;;;;;10.50;7.20;;;13.90;99.90;;;;;;4887680;29;20043;-82
2023/07/27 03:05:59;;;;;;;9.52;7.60;;;14.10;99.90;;;;;;4895761;29;20492;-82
2023/07/27 03:08:26;;;;;;;11.75;8.48;;;14.00;99.90;;;;;;4897458;29;20040;-82
2023/07/27 03:10:52;;;;;;;9.52;7.80;;;14.10;99.90;;;;;;4898230;29;20388;-82
2023/07/27 03:13:18;;;;;;;12.25;8.65;;;14.20;99.90;;;;;;4895743;29;20060;-82
2023/07/27 03:15:44;;;;;;;10.13;7.63;;;14.20;99.90;;;;;;4899487;29;20087;-81
2023/07/27 03:18:09;;;;;;;9.32;7.90;;;14.20;99.90;;;;;;4884028;29;20092;-82
2023/07/27 03:20:39;;;;;;;9.93;7.88;;;14.20;99.90;;;;;;4906221;29;20047;-83
2023/07/27 03:23:05;;;;;;;11.45;8.00;;;14.20;99.90;;;;;;4899350;29;20036;-83
2023/07/27 03:25:33;;;;;;;11.68;8.45;;;14.10;99.90;;;;;;4904795;29;20087;-84
2023/07/27 03:27:59;;;;;;;8.93;7.88;;;14.10;99.90;;;;;;4907319;29;20040;-84
2023/07/27 03:30:24;;;;;;;11.70;8.00;;;14.10;99.90;;;;;;4901551;29;20047;-84
2023/07/27 03:32:50;;;;;;;10.27;8.52;;;14.10;99.90;;;;;;4898173;29;20044;-84
2023/07/27 03:35:16;;;;;;;10.27;7.95;;;14.10;99.90;;;;;;4896485;29;20284;-84
2023/07/27 03:37:41;;;;;;;10.60;8.02;;;14.10;99.90;;;;;;4899116;29;20040;-83
2023/07/27 03:40:07;;;;;;;10.80;8.10;;;14.10;99.90;;;;;;4889763;29;20413;-83
2023/07/27 03:42:33;;;;;;;10.68;8.10;;;14.10;99.90;;;;;;4898375;29;20088;-83
2023/07/27 03:44:59;;;;;;;9.40;8.02;;;14.10;99.90;;;;;;4889863;29;20036;-83
2023/07/27 03:47:24;;;;;;;10.18;8.48;;;14.10;99.90;;;;;;4904597;29;20111;-83
2023/07/27 03:49:50;;;;;;;11.05;8.23;;;14.10;99.90;;;;;;4903784;29;20047;-83
2023/07/27 03:52:15;;;;;;;9.65;8.65;;;14.10;99.90;;;;;;4905066;29;20043;-83
2023/07/27 03:54:41;;;;;;;10.07;8.38;;;14.10;99.90;;;;;;4905686;29;20136;-83
2023/07/27 03:57:07;;;;;;;11.05;9.30;;;14.00;99.90;;;;;;4906196;29;20574;-83
2023/07/27 03:59:32;;;;;;;10.52;9.10;;;14.00;99.90;;;;;;4903796;29;20522;-83
2023/07/27 04:01:58;;;;;;;12.60;8.45;;;14.00;99.90;;;;;;4886961;29;20418;-83
2023/07/27 04:04:23;;;;;;;11.00;8.10;;;14.00;99.90;;;;;;4907088;29;20043;-83
2023/07/27 04:06:49;;;;;;;9.25;8.18;;;14.00;99.90;;;;;;4898869;29;20048;-84
2023/07/27 04:09:15;;;;;;;10.88;8.57;;;14.00;99.90;;;;;;4885603;29;20043;-83
2023/07/27 04:11:40;;;;;;;12.30;8.82;;;14.00;99.90;;;;;;4900183;29;20559;-84
2023/07/27 04:14:06;;;;;;;9.35;7.78;;;13.90;99.90;;;;;;4901636;29;20049;-84
2023/07/27 04:16:31;;;;;;;10.70;8.55;;;14.00;99.90;;;;;;4908809;29;20048;-84
2023/07/27 04:18:57;;;;;;;9.77;7.90;;;14.00;99.90;;;;;;4899786;29;20032;-84
2023/07/27 04:21:23;;;;;;;10.95;8.43;;;14.00;99.90;;;;;;4900187;29;20044;-84
2023/07/27 04:23:49;;;;;;;10.00;8.63;;;13.90;99.90;;;;;;4884644;29;20048;-84
2023/07/27 04:26:14;;;;;;;10.90;8.65;;;14.00;99.90;;;;;;4901343;29;20058;-84
2023/07/27 04:28:40;;;;;;;12.55;9.02;;;14.00;99.90;;;;;;4902654;29;20063;-84
2023/07/27 04:31:06;;;;;;;11.07;8.75;;;14.00;99.90;;;;;;4901298;29;20423;-87
2023/07/27 04:33:31;;;;;;;11.48;8.75;;;14.00;99.90;;;;;;4899348;29;20465;-85
2023/07/27 04:35:59;;;;;;;10.23;8.95;;;14.10;99.90;;;;;;4882762;29;20036;-86
2023/07/27 04:38:25;;;;;;;10.27;8.68;;;14.10;99.90;;;;;;4890511;29;20043;-86
2023/07/27 04:40:53;;;;;;;10.95;9.52;;;14.10;99.90;;;;;;4877590;29;20063;-85
2023/07/27 04:43:19;;;;;;;9.15;8.25;;;14.10;99.90;;;;;;4882400;29;20036;-86
2023/07/27 04:45:45;;;;;;;10.95;8.65;;;14.10;99.90;;;;;;4899507;29;20044;-84
2023/07/27 04:48:11;;;;;;;9.60;8.15;;;14.10;99.90;;;;;;4896038;29;20048;-85
2023/07/27 04:50:36;;;;;;;8.85;7.43;;;14.10;99.90;;;;;;4904790;29;20047;-85
2023/07/27 04:53:02;;;;;;;8.85;7.88;;;14.10;99.90;;;;;;4894567;29;20580;-86
2023/07/27 04:55:28;;;;;;;10.32;8.20;;;14.10;99.90;;;;;;4898528;29;20041;-85
2023/07/27 04:57:53;;;;;;;8.68;7.80;;;14.10;99.90;;;;;;4883637;29;20079;-86
2023/07/27 05:00:19;;;;;;;9.48;7.88;;;14.20;99.90;;;;;;4882868;29;20028;-85
2023/07/27 05:02:45;;;;;;;8.60;7.65;;;14.20;99.90;;;;;;4883538;29;20060;-86
2023/07/27 05:05:10;;;;;;;9.10;7.70;;;14.20;99.90;;;;;;4884030;29;20043;-85
2023/07/27 05:07:36;;;;;;;8.70;7.80;;;14.20;99.90;;;;;;4883392;29;20498;-86
2023/07/27 05:10:02;;;;;;;9.02;7.53;;;14.20;99.90;;;;;;4895252;29;20048;-86
2023/07/27 05:12:28;;;;;;;7.95;6.97;;;14.30;99.90;;;;;;4881100;29;20073;-85
2023/07/27 05:14:54;;;;;;;9.18;7.13;;;14.30;99.90;;;;;;4883161;29;20036;-85
2023/07/27 05:17:20;;;;;;;9.68;7.85;;;14.30;99.90;;;;;;4897207;29;20032;-86
2023/07/27 05:19:45;;;;;;;8.85;7.65;;;14.30;99.90;;;;;;4881011;29;20488;-85
2023/07/27 05:22:11;;;;;;;8.50;7.35;;;14.40;99.90;;;;;;4882332;29;20051;-85
2023/07/27 05:24:38;;;;;;;9.40;7.93;;;14.40;99.90;;;;;;4896851;29;20584;-86
2023/07/27 05:27:04;;;;;;;9.48;7.25;;;14.40;99.90;;;;;;4883936;29;20082;-85
2023/07/27 05:29:30;;;;;;;8.27;7.15;;;14.40;99.90;;;;;;4894091;29;20095;-84
2023/07/27 05:31:57;;;;;;;9.77;8.40;;;14.40;99.90;;;;;;4902563;29;20472;-85
2023/07/27 05:34:23;;;;;;;9.88;8.25;;;14.40;99.90;;;;;;4883153;29;20479;-85
2023/07/27 05:36:49;;;;;;;10.13;7.95;;;14.40;99.90;;;;;;4886773;29;20088;-86
2023/07/27 05:39:14;;;;;;;9.18;8.07;;;14.40;99.90;;;;;;4898833;29;20036;-86
2023/07/27 05:41:40;;;;;;;9.70;7.90;;;14.40;99.90;;;;;;4882504;29;20103;-86
2023/07/27 05:44:06;;;;;;;10.15;8.52;;;14.50;99.90;;;;;;4897206;29;20047;-85
2023/07/27 05:46:31;;;;;;;10.15;8.57;;;14.40;99.90;;;;;;4879407;29;20055;-86
2023/07/27 05:48:57;;;;;;;10.77;8.95;;;14.50;99.90;;;;;;4883174;29;20055;-85
2023/07/27 05:51:23;;;;;;;10.93;8.30;;;14.50;99.90;;;;;;4890534;29;20059;-86
2023/07/27 05:53:48;;;;;;;10.93;9.02;;;14.50;99.90;;;;;;4895471;29;20036;-84
2023/07/27 05:56:14;;;;;;;10.38;9.10;;;14.60;99.90;;;;;;4886837;29;20036;-86
2023/07/27 05:58:39;;;;;;;12.80;9.25;;;14.60;99.90;;;;;;4882893;29;20511;-86
2023/07/27 06:01:05;;;;;;;11.23;9.70;;;14.60;99.90;;;;;;4895914;29;20036;-86
2023/07/27 06:03:31;;;;;;;13.02;10.73;;;14.70;99.90;;;;;;4882370;29;20103;-85
2023/07/27 06:05:57;;;;;;;14.05;10.95;;;14.70;99.90;;;;;;4882601;29;20557;-85
2023/07/27 06:08:23;;;;;;;12.48;11.13;;;14.70;99.90;;;;;;4891396;29;20083;-85
2023/07/27 06:10:58;;;;;;;14.27;11.00;;;14.70;99.90;;;;;;4886132;29;21424;-85
2023/07/27 06:13:23;;;;;;;13.77;12.30;;;14.70;99.90;;;;;;4882358;29;20518;-86
2023/07/27 06:15:49;;;;;;;15.45;11.02;;;14.70;99.90;;;;;;4881631;29;20119;-85
2023/07/27 06:18:15;;;;;;;15.00;12.95;;;14.70;99.90;;;;;;4898395;29;20067;-86
2023/07/27 06:20:41;;;;;;;14.63;12.30;;;14.70;99.90;;;;;;4881354;29;20468;-86
2023/07/27 06:23:06;;;;;;;16.48;12.73;;;14.70;99.90;;;;;;4889878;29;20040;-86
2023/07/27 06:25:32;;;;;;;14.02;11.30;;;14.80;99.90;;;;;;4906322;29;20039;-85
2023/07/27 06:27:58;;;;;;;15.85;13.00;;;14.80;99.90;;;;;;4884470;29;20434;-86
2023/07/27 06:30:23;;;;;;;16.73;12.85;;;14.80;99.90;;;;;;4888128;29;20033;-86
2023/07/27 06:32:49;;;;;;;14.88;12.23;;;14.90;99.90;;;;;;4881425;29;20131;-86
2023/07/27 06:35:15;;;;;;;15.00;12.23;;;15.00;99.90;;;;;;4902672;29;20244;-86
2023/07/27 06:37:42;;;;;;;14.90;11.98;;;14.90;99.90;;;;;;4895731;29;20043;-85
2023/07/27 06:40:08;;;;;;;17.65;13.68;;;15.00;99.90;;;;;;4880894;29;20035;-86
2023/07/27 06:42:34;;;;;;;16.23;13.57;;;15.00;99.90;;;;;;4893232;29;20406;-86
2023/07/27 06:44:59;;;;;;;14.48;12.27;;;15.00;99.90;;;;;;4881282;29;20052;-86
2023/07/27 06:47:25;;;;;;;13.93;12.43;;;15.00;99.90;;;;;;4897071;29;20156;-85
2023/07/27 06:49:51;;;;;;;15.80;12.57;;;15.00;99.90;;;;;;4878933;29;20093;-86
2023/07/27 06:52:16;;;;;;;12.45;10.43;;;15.00;99.90;;;;;;4892095;29;20040;-86
2023/07/27 06:54:42;;;;;;;14.32;10.85;;;15.00;99.90;;;;;;4881139;29;20040;-86
2023/07/27 06:57:10;;;;;;;12.75;11.45;;;15.00;99.90;;;;;;4896027;29;20414;-85
2023/07/27 06:59:37;;;;;;;13.15;11.05;;;15.00;99.90;;;;;;4896985;29;20491;-86
2023/07/27 07:02:03;;;;;;;12.55;11.25;;;15.00;99.90;;;;;;4879823;29;20055;-85
2023/07/27 07:04:31;;;;;;;12.85;11.25;;;15.10;99.90;;;;;;4900157;29;20036;-86
2023/07/27 07:06:57;;;;;;;13.27;11.85;;;15.10;99.90;;;;;;4887964;29;20131;-86
2023/07/27 07:09:23;;;;;;;13.20;11.23;;;15.20;99.90;;;;;;4883268;29;20051;-86
2023/07/27 07:11:49;;;;;;;13.10;11.70;;;15.20;99.90;;;;;;4895766;29;20051;-86
2023/07/27 07:14:14;;;;;;;12.88;10.77;;;15.20;99.90;;;;;;4880909;29;20396;-86
2023/07/27 07:16:40;;;;;;;12.23;10.57;;;15.20;99.90;;;;;;4897228;29;20044;-86
2023/07/27 07:19:06;;;;;;;13.68;12.38;;;15.30;99.90;;;;;;4879756;29;20028;-86
2023/07/27 07:21:31;;;;;;;12.70;11.38;;;15.30;99.90;;;;;;4892385;29;20477;-86
2023/07/27 07:23:57;;;;;;;13.85;11.60;;;15.30;99.90;;;;;;4882494;29;20036;-86
2023/07/27 07:26:24;;;;;;;14.65;12.27;;;15.30;99.90;;;;;;4900873;29;20086;-85
2023/07/27 07:28:49;;;;;;;11.93;10.70;;;15.30;99.90;;;;;;4897421;29;20055;-86
2023/07/27 07:31:15;;;;;;;12.18;10.88;;;15.40;99.90;;;;;;4895888;29;20410;-86
2023/07/27 07:33:41;;;;;;;11.10;9.98;;;15.40;99.90;;;;;;4881071;29;20041;-85
2023/07/27 07:36:07;;;;;;;11.93;10.68;;;15.40;99.90;;;;;;4893928;29;20032;-87
2023/07/27 07:38:32;;;;;;;9.73;8.77;;;15.40;99.90;;;;;;4884022;29;20084;-85
2023/07/27 07:40:58;;;;;;;11.18;9.40;;;15.30;99.90;;;;;;4897122;29;20040;-86
2023/07/27 07:43:27;;;;;;;10.30;8.77;;;15.40;99.90;;;;;;4897368;29;20043;-86
2023/07/27 07:45:52;;;;;;;11.40;9.20;;;15.40;99.90;;;;;;4897592;29;20044;-86
2023/07/27 07:48:18;;;;;;;8.82;8.02;;;15.40;99.90;;;;;;4897647;29;20092;-86
2023/07/27 07:50:43;;;;;;;8.85;8.05;;;15.40;99.90;;;;;;4881533;29;20044;-86
2023/07/27 07:53:10;;;;;;;9.52;8.55;;;15.40;99.90;;;;;;4880883;29;20040;-86
2023/07/27 07:55:37;;;;;;;8.65;7.85;;;15.30;99.90;;;;;;4901017;29;20044;-85
2023/07/27 07:58:03;;;;;;;10.00;8.98;;;15.30;99.90;;;;;;4900577;29;20534;-86
2023/07/27 08:00:29;;;;;;;9.20;8.30;;;15.30;99.90;;;;;;4884564;29;20407;-86
2023/07/27 08:02:54;;;;;;;8.45;7.65;;;15.30;99.90;;;;;;4885006;29;20040;-86
2023/07/27 08:05:20;;;;;;;9.68;8.57;;;15.30;99.90;;;;;;4900669;29;20044;-85
2023/07/27 08:07:48;;;;;;;9.48;8.15;;;15.30;99.90;;;;;;4896529;29;20049;-85
2023/07/27 08:10:14;;;;;;;10.40;9.23;;;15.30;99.90;;;;;;4900213;29;20068;-85
2023/07/27 08:12:39;;;;;;;9.48;8.65;;;15.30;99.90;;;;;;4882856;29;20456;-86
2023/07/27 08:15:06;;;;;;;10.90;9.75;;;15.40;99.90;;;;;;4887771;29;20511;-86
2023/07/27 08:17:32;;;;;;;9.93;9.13;;;15.40;99.90;;;;;;4871506;29;20495;-86
2023/07/27 08:19:58;;;;;;;11.43;10.43;;;15.30;99.90;;;;;;4892271;29;20055;-85
2023/07/27 08:22:24;;;;;;;10.90;9.90;;;15.40;99.90;;;;;;4889269;29;20410;-86
2023/07/27 08:24:50;;;;;;;12.23;10.70;;;15.40;99.90;;;;;;4884241;29;20040;-85
2023/07/27 08:27:16;;;;;;;11.65;10.65;;;15.40;99.90;;;;;;4889981;29;20123;-85
2023/07/27 08:29:42;;;;;;;11.63;10.73;;;15.50;99.90;;;;;;4884232;29;20050;-86
2023/07/27 08:32:07;;;;;;;10.65;9.82;;;15.50;99.90;;;;;;4884348;29;20044;-85
2023/07/27 08:34:33;;;;;;;11.60;10.70;;;15.60;99.90;;;;;;4899775;29;20044;-85
2023/07/27 08:36:59;;;;;;;10.63;9.73;;;15.60;99.90;;;;;;4905448;29;20067;-85
2023/07/27 08:39:25;;;;;;;11.05;10.18;;;15.70;99.90;;;;;;4892748;29;20044;-84
2023/07/27 08:41:50;;;;;;;10.50;9.68;;;15.70;99.90;;;;;;4896068;29;20044;-85
2023/07/27 08:44:17;;;;;;;10.63;9.82;;;15.80;99.90;;;;;;4884440;29;20051;-85
2023/07/27 08:46:45;;;;;;;9.80;9.00;;;15.80;99.90;;;;;;4899653;29;20068;-86
2023/07/27 08:49:14;;;;;;;9.80;9.00;;;15.80;99.90;;;;;;4898188;29;20510;-85
2023/07/27 08:51:43;;;;;;;10.18;9.27;;;15.90;99.90;;;;;;4883540;29;20040;-86
2023/07/27 08:54:09;;;;;;;9.77;8.98;;;15.80;99.90;;;;;;4899779;29;20081;-85
2023/07/27 08:56:35;;;;;;;9.65;8.95;;;15.90;99.90;;;;;;4883674;29;20071;-85
2023/07/27 08:59:00;;;;;;;10.35;9.30;;;16.00;99.90;;;;;;4894190;29;20039;-86
2023/07/27 09:01:26;;;;;;;9.77;9.07;;;15.90;99.90;;;;;;4898554;29;20040;-85
2023/07/27 09:03:52;;;;;;;9.63;8.93;;;16.00;99.90;;;;;;4899641;29;20149;-85
2023/07/27 09:06:39;;;;;;;9.77;9.00;;;16.00;99.90;;;;;;4883787;29;20036;-85
2023/07/27 09:09:17;;;;;;;10.32;9.43;;;16.10;99.90;;;;;;4900606;29;20048;-85
2023/07/27 09:11:44;;;;;;;8.88;8.13;;;16.10;99.90;;;;;;4899105;29;20044;-86
2023/07/27 09:14:10;;;;;;;8.95;8.15;;;16.20;99.90;;;;;;4892574;29;20044;-85
2023/07/27 09:16:36;;;;;;;8.27;7.68;;;16.30;99.90;;;;;;4897301;29;20036;-85
2023/07/27 09:19:04;;;;;;;8.13;7.63;;;16.30;99.90;;;;;;4884455;29;20127;-85
2023/07/27 09:21:48;;;;;;;8.57;7.82;;;16.30;99.90;;;;;;4902081;29;20084;-85
2023/07/27 09:24:16;;;;;;;7.95;7.28;;;16.40;99.90;;;;;;4884384;29;20530;-86
2023/07/27 09:26:50;;;;;;;8.75;7.97;;;16.40;99.90;;;;;;4898724;29;20059;-86
2023/07/27 09:29:18;;;;;;;7.28;6.68;;;16.40;99.90;;;;;;4899332;29;20115;-85
2023/07/27 09:31:48;;;;;;;7.65;7.15;;;16.50;99.90;;;;;;4897331;29;20085;-85
2023/07/27 09:34:18;;;;;;;7.10;6.60;;;16.60;99.90;;;;;;4883590;29;20096;-86
2023/07/27 09:36:44;;;;;;;7.18;6.55;;;16.60;99.90;;;;;;4893166;29;20051;-85
2023/07/27 09:39:11;;;;;;;7.15;6.63;;;16.70;99.90;;;;;;4898927;29;20047;-85
2023/07/27 09:41:37;;;;;;;6.32;5.93;;;16.70;99.90;;;;;;4898268;29;20040;-85
2023/07/27 09:44:04;;;;;;;6.50;6.00;;;16.70;99.90;;;;;;4883310;29;20123;-85
2023/07/27 09:46:30;;;;;;;6.53;6.13;;;16.80;99.90;;;;;;4882629;29;20048;-84
2023/07/27 09:48:57;;;;;;;5.60;5.20;;;16.80;99.90;;;;;;4906616;29;20040;-86
2023/07/27 09:51:26;;;;;;;5.28;4.88;;;16.90;99.90;;;;;;4897066;29;20415;-85
2023/07/27 09:53:52;;;;;;;5.32;4.93;;;16.90;99.90;;;;;;4894015;29;20044;-86
2023/07/27 09:56:19;;;;;;;5.68;5.28;;;17.00;99.90;;;;;;4898485;29;20032;-85
2023/07/27 09:58:48;;;;;;;5.60;5.20;;;17.00;99.90;;;;;;4880463;29;20095;-85
2023/07/27 10:01:14;;;;;;;6.45;5.95;;;17.10;99.90;;;;;;4892817;29;20034;-86
2023/07/27 10:03:39;;;;;;;5.72;5.32;;;17.10;99.90;;;;;;4882492;29;20040;-85
2023/07/27 10:06:08;;;;;;;5.00;4.70;;;17.20;99.90;;;;;;4882659;29;20517;-85
2023/07/27 10:08:34;;;;;;;6.10;5.70;;;17.20;99.90;;;;;;4881879;29;20036;-85
2023/07/27 10:11:01;;;;;;;6.05;5.55;;;17.20;99.90;;;;;;4889703;29;20040;-85
2023/07/27 10:13:27;;;;;;;5.43;5.00;;;17.30;99.90;;;;;;4890184;29;20100;-85
2023/07/27 10:15:54;;;;;;;5.75;5.25;;;17.30;99.90;;;;;;4894798;29;20068;-85
2023/07/27 10:18:24;;;;;;;5.20;4.80;;;17.40;99.90;;;;;;4891374;29;20032;-85
2023/07/27 10:20:51;;;;;;;5.32;4.82;;;17.50;99.90;;;;;;4890718;29;20048;-84
2023/07/27 10:23:31;;;;;;;5.43;5.03;;;17.50;99.90;;;;;;4878889;29;20135;-85
2023/07/27 10:26:00;;;;;;;5.40;5.00;;;17.50;99.90;;;;;;4888643;29;20100;-84
2023/07/27 10:28:37;;;;;;;4.35;4.05;;;17.60;99.90;;;;;;4878901;29;20059;-85
2023/07/27 10:31:24;;;;;;;4.15;3.85;;;17.60;99.90;;;;;;4881852;29;20048;-85
2023/07/27 10:33:55;;;;;;;4.53;4.22;;;17.70;99.90;;;;;;4882492;29;20100;-85
2023/07/27 10:36:23;;;;;;;4.68;4.28;;;17.70;99.90;;;;;;4883189;29;20209;-85
2023/07/27 10:38:56;;;;;;;4.10;3.80;;;17.70;99.90;;;;;;4883185;29;20502;-85
2023/07/27 10:41:26;;;;;;;3.55;3.35;;;17.80;99.90;;;;;;4882155;29;20044;-85
2023/07/27 10:44:07;;;;;;;3.80;3.50;;;17.80;99.90;;;;;;4883152;29;20402;-85
2023/07/27 10:46:36;;;;;;;3.60;3.40;;;17.70;99.90;;;;;;4898136;29;20051;-85
2023/07/27 10:49:12;;;;;;;3.40;3.20;;;17.70;99.90;;;;;;4882708;29;20036;-85
2023/07/27 10:51:39;;;;;;;3.47;3.28;;;17.70;99.90;;;;;;4897767;29;20044;-85
2023/07/27 10:54:05;;;;;;;3.50;3.30;;;17.60;99.90;;;;;;4898418;29;20040;-85
2023/07/27 10:56:35;;;;;;;3.80;3.50;;;17.60;99.90;;;;;;4898021;29;20039;-85
2023/07/27 10:59:01;;;;;;;3.47;3.28;;;17.70;99.90;;;;;;4882329;29;20040;-86
2023/07/27 11:01:33;;;;;;;3.65;3.35;;;17.70;99.90;;;;;;4885129;29;20040;-85
2023/07/27 11:03:59;;;;;;;4.10;3.65;;;17.80;99.90;;;;;;4895129;29;20047;-86
2023/07/27 11:06:28;;;;;;;4.30;3.90;;;17.80;99.90;;;;;;4899285;29;20048;-85
2023/07/27 11:08:55;;;;;;;3.47;3.28;;;17.90;99.90;;;;;;4880427;29;20042;-85
2023/07/27 11:11:23;;;;;;;3.95;3.65;;;17.90;99.90;;;;;;4892620;29;20036;-84
2023/07/27 11:13:50;;;;;;;3.92;3.72;;;17.90;99.90;;;;;;4887481;29;20051;-85
2023/07/27 11:16:16;;;;;;;4.25;3.83;;;18.00;99.90;;;;;;4893568;29;20032;-86
2023/07/27 11:18:42;;;;;;;3.80;3.60;;;18.10;99.90;;;;;;4882385;29;20138;-85
2023/07/27 11:21:09;;;;;;;3.63;3.33;;;18.20;99.90;;;;;;4897670;29;20068;-86
2023/07/27 11:23:46;;;;;;;3.78;3.47;;;18.30;99.90;;;;;;4883718;29;20051;-85
2023/07/27 11:26:13;;;;;;;3.53;3.22;;;18.40;99.90;;;;;;4901600;29;20048;-85
2023/07/27 11:28:42;;;;;;;3.40;3.20;;;18.50;99.90;;;;;;4886812;29;20071;-85
2023/07/27 11:31:08;;;;;;;3.47;3.17;;;18.60;99.90;;;;;;4885683;29;20044;-85
2023/07/27 11:33:37;;;;;;;3.03;2.83;;;18.70;99.90;;;;;;4901943;29;20056;-85
2023/07/27 11:36:07;;;;;;;3.78;3.53;;;18.70;99.90;;;;;;4895709;29;20072;-85
2023/07/27 11:38:33;;;;;;;3.10;2.80;;;18.80;99.90;;;;;;4901495;29;20079;-85
2023/07/27 11:40:59;;;;;;;3.45;3.25;;;18.90;99.90;;;;;;4901421;29;20542;-85
2023/07/27 11:43:26;;;;;;;3.58;3.30;;;19.00;99.90;;;;;;4887838;29;20590;-86
2023/07/27 11:45:58;;;;;;;3.08;2.88;;;19.10;99.90;;;;;;4885067;29;20122;-85
2023/07/27 11:48:28;;;;;;;3.60;3.40;;;19.10;99.90;;;;;;4885176;29;20076;-85
2023/07/27 11:50:58;;;;;;;3.33;3.05;;;19.20;99.90;;;;;;4877722;29;20042;-85
2023/07/27 11:53:28;;;;;;;3.20;3.00;;;19.20;99.90;;;;;;4901936;29;20040;-85
2023/07/27 11:55:57;;;;;;;3.40;3.10;;;19.30;99.90;;;;;;4901147;29;20447;-85
2023/07/27 11:58:26;;;;;;;3.55;3.35;;;19.30;99.90;;;;;;4884831;29;20487;-85
2023/07/27 12:00:55;;;;;;;3.58;3.28;;;19.40;99.90;;;;;;4903458;29;20410;-85
2023/07/27 12:03:21;;;;;;;3.65;3.45;;;19.40;99.90;;;;;;4900367;29;20036;-85
2023/07/27 12:05:47;;;;;;;3.67;3.47;;;19.50;99.90;;;;;;4880216;29;20407;-85
2023/07/27 12:08:18;;;;;;;4.00;3.70;;;19.60;99.90;;;;;;4879770;29;20040;-85
2023/07/27 12:10:54;;;;;;;3.92;3.42;;;19.70;99.90;;;;;;4899315;29;20144;-84
2023/07/27 12:13:22;;;;;;;3.65;3.35;;;19.60;99.90;;;;;;4895821;29;20499;-85
2023/07/27 12:16:07;;;;;;;3.75;3.45;;;19.60;99.90;;;;;;4884925;29;20036;-85
2023/07/27 12:18:33;;;;;;;3.78;3.47;;;19.60;99.90;;;;;;4887104;29;20423;-85
2023/07/27 12:20:59;;;;;;;3.80;3.50;;;19.60;99.90;;;;;;4899865;29;20036;-85
2023/07/27 12:23:25;;;;;;;3.33;3.13;;;19.70;99.90;;;;;;4892971;29;20040;-85
2023/07/27 12:25:52;;;;;;;3.33;3.13;;;19.70;99.90;;;;;;4899917;29;20036;-85
2023/07/27 12:28:18;;;;;;;3.58;3.38;;;19.70;99.90;;;;;;4900063;29;20391;-84
2023/07/27 12:30:44;;;;;;;3.58;3.28;;;19.70;99.90;;;;;;4884169;29;20047;-85
2023/07/27 12:33:11;;;;;;;2.83;2.63;;;19.70;99.90;;;;;;4892645;29;20041;-86
2023/07/27 12:35:40;;;;;;;3.22;2.92;;;19.80;99.90;;;;;;4882057;29;20422;-85
2023/07/27 12:38:06;;;;;;;2.67;2.47;;;19.80;99.90;;;;;;4883430;29;20050;-85
2023/07/27 12:40:31;;;;;;;2.20;2.10;;;19.90;99.90;;;;;;4899689;29;20127;-85